Time;durP1;ratioP1;P1;durP2;ratioP2;P2;SDS_P1;SDS_P2;PMS_P1;PMS_P2;Temp;Humidity;BMP_temperature;BMP_pressure;BME280_temperature;BME280_humidity;BME280_pressure;Samples;Min_cycle;Max_cycle;Signal;HPM_P1;HPM_P2
2023/01/19 00:00:36;;;;;;;14.18;5.93;;;;;;;-144.47;90.04;53205.66;5006077;28;20066;-64
2023/01/19 00:03:05;;;;;;;16.98;5.35;;;;;;;-144.47;89.78;53201.69;5005640;28;20030;-67
2023/01/19 00:05:30;;;;;;;12.50;5.45;;;;;;;-144.47;88.85;53177.88;5002813;28;20548;-65
2023/01/19 00:08:13;;;;;;;11.18;5.28;;;;;;;-144.47;88.88;53207.66;5010834;28;20033;-66
2023/01/19 00:10:39;;;;;;;12.48;6.00;;;;;;;-144.47;89.01;53187.78;4985763;28;20029;-66
2023/01/19 00:13:04;;;;;;;9.77;6.03;;;;;;;-144.47;89.14;53161.97;5005329;28;20022;-65
2023/01/19 00:15:29;;;;;;;14.00;5.68;;;;;;;-144.47;89.60;53193.75;4990465;28;20477;-64
2023/01/19 00:17:55;;;;;;;15.32;6.45;;;;;;;-144.47;89.79;53185.81;5005572;28;20026;-65
2023/01/19 00:20:20;;;;;;;11.88;5.47;;;;;;;-144.47;90.05;53183.81;5009984;28;20075;-64
2023/01/19 00:22:49;;;;;;;11.45;5.28;;;;;;;-144.47;90.23;53193.75;5014460;28;20168;-66
2023/01/19 00:25:16;;;;;;;11.73;5.53;;;;;;;-144.47;90.60;53167.94;5005966;28;20033;-66
2023/01/19 00:27:41;;;;;;;8.02;4.30;;;;;;;-144.47;91.12;53209.66;5003532;28;20081;-64
2023/01/19 00:30:07;;;;;;;17.75;5.63;;;;;;;-144.47;91.15;53207.66;5005769;28;20026;-67
2023/01/19 00:32:32;;;;;;;21.73;5.63;;;;;;;-144.47;91.42;53211.63;5003780;28;20030;-64
2023/01/19 00:34:58;;;;;;;12.52;5.47;;;;;;;-144.47;91.54;53156.00;5005027;28;20030;-65
2023/01/19 00:37:23;;;;;;;17.60;6.75;;;;;;;-144.47;91.76;53209.66;4986686;28;20030;-65
2023/01/19 00:39:49;;;;;;;14.45;6.60;;;;;;;-144.47;91.55;53177.88;5005245;28;20030;-65
2023/01/19 00:44:58;;;;;;;19.02;5.47;;;;;;;-144.47;91.84;53211.63;5005966;28;20044;-67
2023/01/19 00:47:24;;;;;;;12.52;5.82;;;;;;;-144.47;91.92;53205.66;5005035;28;20075;-65
2023/01/19 00:49:49;;;;;;;15.00;5.38;;;;;;;-144.47;92.34;53187.78;5004963;28;20029;-66
2023/01/19 00:52:15;;;;;;;11.82;5.43;;;;;;;-144.47;92.58;53185.81;5004929;28;20064;-66
2023/01/19 00:54:40;;;;;;;12.90;5.60;;;;;;;-144.47;92.51;53169.91;4999828;28;20543;-66
2023/01/19 00:57:05;;;;;;;12.35;5.05;;;;;;;-144.47;92.87;53193.75;4985742;28;20042;-66
2023/01/19 00:59:31;;;;;;;13.93;5.63;;;;;;;-144.47;93.28;53197.72;4974310;28;20026;-65
2023/01/19 01:01:56;;;;;;;20.10;6.25;;;;;;;-144.47;93.07;53207.66;4973721;28;20534;-66
2023/01/19 01:04:21;;;;;;;18.20;6.75;;;;;;;-144.47;92.51;53179.84;4991012;28;20046;-66
2023/01/19 01:06:47;;;;;;;19.27;6.25;;;;;;;-144.47;91.98;53189.78;4990365;28;20034;-66
2023/01/19 01:09:12;;;;;;;15.15;5.47;;;;;;;-144.47;91.79;53201.69;4998640;28;20399;-66
2023/01/19 01:11:41;;;;;;;13.82;5.10;;;;;;;-144.47;91.62;53209.66;4990615;28;20042;-65
2023/01/19 01:14:08;;;;;;;;;;;;;;;-144.47;91.77;53173.88;4991387;28;20037;-66
2023/01/19 01:16:33;;;;;;;7.47;4.00;;;;;;;-144.47;91.58;53201.69;4991021;28;20020;-65
2023/01/19 01:18:59;;;;;;;16.05;5.70;;;;;;;-144.47;92.02;53213.63;4991226;28;20068;-66
2023/01/19 01:21:24;;;;;;;18.27;5.10;;;;;;;-144.47;91.72;53233.47;4996564;28;20113;-64
2023/01/19 01:23:49;;;;;;;19.45;6.15;;;;;;;-144.47;92.12;53209.66;4997855;28;20030;-66
2023/01/19 01:26:15;;;;;;;13.63;5.75;;;;;;;-144.47;92.35;53219.56;4990661;28;20030;-67
2023/01/19 01:28:40;;;;;;;11.95;5.20;;;;;;;-144.47;92.83;53197.72;4972873;28;20077;-66
2023/01/19 01:31:06;;;;;;;13.55;5.60;;;;;;;-144.47;93.04;53209.66;4990923;28;20186;-66
2023/01/19 01:33:31;;;;;;;10.40;5.18;;;;;;;-144.47;93.13;53215.59;4989578;28;20053;-65
2023/01/19 01:35:56;;;;;;;15.82;6.05;;;;;;;-144.47;93.48;53231.50;4990519;28;20037;-66
2023/01/19 01:38:22;;;;;;;16.90;5.07;;;;;;;-144.47;93.16;53197.72;4990535;28;20045;-66
2023/01/19 01:40:47;;;;;;;12.70;5.68;;;;;;;-144.47;92.91;53221.56;4989599;28;20132;-66
2023/01/19 01:43:15;;;;;;;11.07;5.70;;;;;;;-144.47;92.83;53195.75;4988740;28;20040;-65
2023/01/19 01:45:41;;;;;;;14.48;5.28;;;;;;;-144.47;92.98;53203.69;4990149;28;20120;-66
2023/01/19 01:48:13;;;;;;;10.50;5.25;;;;;;;-144.47;92.59;53209.66;4990100;28;20076;-67
2023/01/19 01:51:22;;;;;;;9.32;4.72;;;;;;;-144.47;92.02;53191.78;4973504;28;20031;-67
2023/01/19 01:53:54;;;;;;;22.95;5.78;;;;;;;-144.47;92.23;53195.75;4990329;28;20115;-66
2023/01/19 01:56:25;;;;;;;13.05;4.50;;;;;;;-144.47;92.36;53193.75;4987788;28;20037;-64
2023/01/19 01:58:51;;;;;;;13.75;5.50;;;;;;;-144.47;91.62;53195.75;4986782;28;20102;-65
2023/01/19 02:04:00;;;;;;;11.80;4.32;;;;;;;-144.47;92.03;53219.56;4989417;28;20041;-64
2023/01/19 02:06:25;;;;;;;12.25;4.60;;;;;;;-144.47;92.24;53227.53;4988448;28;20030;-66
2023/01/19 02:14:26;;;;;;;8.90;4.18;;;;;;;-144.47;91.32;53203.69;4989677;28;20041;-66
2023/01/19 02:16:52;;;;;;;11.73;5.18;;;;;;;-144.47;91.50;53221.56;4989361;28;20019;-65
2023/01/19 02:19:25;;;;;;;12.23;5.28;;;;;;;-144.47;91.41;53241.44;4989542;28;20515;-64
2023/01/19 02:22:02;;;;;;;8.20;4.38;;;;;;;-144.47;91.13;53225.53;4989551;28;20423;-66
2023/01/19 02:24:28;;;;;;;13.32;4.72;;;;;;;-144.47;91.25;53215.59;4999356;28;20036;-63
2023/01/19 02:26:58;;;;;;;10.48;4.32;;;;;;;-144.47;91.23;53257.31;4988922;28;20075;-66
2023/01/19 02:29:25;;;;;;;9.75;4.65;;;;;;;-144.47;91.15;53215.59;4988491;28;20053;-65
2023/01/19 02:31:51;;;;;;;13.98;5.28;;;;;;;-144.47;90.70;53229.50;4989395;28;20121;-66
2023/01/19 02:34:19;;;;;;;14.20;4.22;;;;;;;-144.47;90.50;53213.63;4988691;28;20033;-66
2023/01/19 02:36:52;;;;;;;11.52;4.43;;;;;;;-144.47;90.66;53229.50;4988921;28;20101;-66
2023/01/19 02:39:21;;;;;;;18.60;5.82;;;;;;;-144.47;90.67;53221.56;4981448;28;20519;-67
2023/01/19 02:41:53;;;;;;;12.70;4.90;;;;;;;-144.47;91.06;53213.63;4988507;28;20027;-66
2023/01/19 02:44:22;;;;;;;9.93;4.40;;;;;;;-144.47;91.10;53257.31;4988481;28;20038;-66
2023/01/19 02:46:47;;;;;;;17.33;5.38;;;;;;;-144.47;91.20;53225.53;4988574;28;20023;-67
2023/01/19 02:49:12;;;;;;;13.50;4.22;;;;;;;-144.47;91.59;53221.56;4989670;28;20037;-65
2023/01/19 02:51:38;;;;;;;9.57;4.75;;;;;;;-144.47;91.86;53217.59;4990186;28;20026;-67
2023/01/19 02:54:03;;;;;;;8.32;4.32;;;;;;;-144.47;91.15;53181.84;4989622;28;20338;-63
2023/01/19 02:56:56;;;;;;;10.98;3.70;;;;;;;-144.47;91.21;53225.53;4986342;28;20023;-65
2023/01/19 02:59:51;;;;;;;8.82;4.28;;;;;;;-144.47;90.50;53217.59;4983051;28;20022;-66
2023/01/19 03:02:48;;;;;;;14.55;3.78;;;;;;;-144.47;89.84;53221.56;4982967;28;20038;-66
2023/01/19 03:05:39;;;;;;;10.77;3.95;;;;;;;-144.47;89.00;53239.44;4988570;28;20137;-66
2023/01/19 03:08:34;;;;;;;11.13;4.63;;;;;;;-144.47;88.62;53203.69;4973313;28;20045;-67
2023/01/19 03:11:02;;;;;;;17.75;4.60;;;;;;;-144.47;88.49;53199.72;4935233;28;20040;-63
2023/01/19 03:13:43;;;;;;;8.48;4.18;;;;;;;-144.47;88.69;53207.66;4988817;28;20273;-66
2023/01/19 03:16:28;;;;;;;22.75;4.60;;;;;;;-144.47;89.44;53215.59;4989388;28;20041;-66
2023/01/19 03:19:19;;;;;;;12.55;4.22;;;;;;;-144.47;89.76;53229.50;4989065;28;20030;-66
2023/01/19 03:21:48;;;;;;;12.98;4.15;;;;;;;-144.47;90.92;53207.66;4996136;28;20025;-67
2023/01/19 03:24:16;;;;;;;7.53;3.53;;;;;;;-144.47;91.16;53187.78;4969507;28;20034;-66
2023/01/19 03:26:46;;;;;;;11.43;3.83;;;;;;;-144.47;90.37;53227.53;4988947;28;20061;-66
2023/01/19 03:29:14;;;;;;;8.23;3.58;;;;;;;-144.47;89.72;53197.72;4981152;28;20026;-64
2023/01/19 03:31:44;;;;;;;17.20;3.97;;;;;;;-144.47;89.22;53205.66;4989033;28;20050;-65
2023/01/19 03:34:12;;;;;;;9.50;3.22;;;;;;;-144.47;88.93;53241.44;4988462;28;20564;-64
2023/01/19 03:36:47;;;;;;;7.95;3.35;;;;;;;-144.47;88.61;53177.88;4988207;28;20105;-66
2023/01/19 03:39:18;;;;;;;7.85;3.70;;;;;;;-144.47;88.25;53215.59;4978955;28;20053;-66
2023/01/19 03:41:47;;;;;;;9.75;3.97;;;;;;;-144.47;88.04;53215.59;4987791;28;20026;-65
2023/01/19 03:44:12;;;;;;;14.00;3.63;;;;;;;-144.47;87.45;53213.63;4988387;28;20084;-65
2023/01/19 03:46:39;;;;;;;13.07;3.67;;;;;;;-144.47;87.38;53235.47;4988143;28;20396;-65
2023/01/19 03:49:06;;;;;;;8.32;3.13;;;;;;;-144.47;86.92;53205.66;4988818;28;20100;-65
2023/01/19 03:51:35;;;;;;;7.85;3.45;;;;;;;-144.47;86.31;53211.63;4988152;28;20109;-67
2023/01/19 03:54:00;;;;;;;11.10;4.03;;;;;;;-144.47;86.36;53227.53;4988619;28;20038;-66
2023/01/19 03:56:26;;;;;;;6.97;3.40;;;;;;;-144.47;85.95;53245.41;4987469;28;20385;-65
2023/01/19 03:58:51;;;;;;;6.88;3.00;;;;;;;-144.47;86.21;53201.69;4989973;28;20065;-65
2023/01/19 04:01:21;;;;;;;6.40;2.70;;;;;;;-144.47;86.11;53207.66;4992480;28;20037;-64
2023/01/19 04:03:47;;;;;;;6.97;3.15;;;;;;;-144.47;86.27;53201.69;4992436;28;20117;-64
2023/01/19 04:06:13;;;;;;;12.52;3.58;;;;;;;-144.47;85.85;53201.69;4992227;28;20572;-65
2023/01/19 04:08:39;;;;;;;5.35;2.95;;;;;;;-144.47;85.63;53209.66;4988741;28;20101;-65
2023/01/19 04:11:07;;;;;;;7.82;3.17;;;;;;;-144.47;85.45;53201.69;4988146;28;20068;-66
2023/01/19 04:13:33;;;;;;;7.63;3.10;;;;;;;-144.47;85.16;53195.75;4988109;28;20030;-66
2023/01/19 04:16:00;;;;;;;7.85;2.95;;;;;;;-144.47;85.03;53201.69;4987974;28;20034;-66
2023/01/19 04:18:27;;;;;;;5.13;2.67;;;;;;;-144.47;85.22;53185.81;4988165;28;20033;-66
2023/01/19 04:20:53;;;;;;;8.13;3.47;;;;;;;-144.47;84.98;53213.63;4968081;28;20050;-65
2023/01/19 04:23:19;;;;;;;13.38;4.43;;;;;;;-144.47;84.95;53197.72;4984985;28;20433;-67
2023/01/19 04:25:44;;;;;;;8.38;2.92;;;;;;;-144.47;85.24;53211.63;4987994;28;20461;-65
2023/01/19 04:28:10;;;;;;;8.82;3.00;;;;;;;-144.47;85.25;53201.69;4986744;28;20034;-67
2023/01/19 04:30:35;;;;;;;7.50;3.08;;;;;;;-144.47;85.08;53235.47;4989565;28;20057;-67
2023/01/19 04:33:01;;;;;;;7.30;3.50;;;;;;;-144.47;85.80;53211.63;4991476;28;20114;-66
2023/01/19 04:35:26;;;;;;;6.05;2.53;;;;;;;-144.47;86.22;53219.56;4991348;28;20080;-66
2023/01/19 04:37:52;;;;;;;11.13;3.83;;;;;;;-144.47;86.52;53193.75;4991044;28;20040;-65
2023/01/19 04:40:17;;;;;;;7.28;3.50;;;;;;;-144.47;87.07;53219.56;4991074;28;20039;-66
2023/01/19 04:42:44;;;;;;;9.77;3.88;;;;;;;-144.47;87.83;53189.78;4990692;28;20065;-65
2023/01/19 04:45:13;;;;;;;12.02;4.10;;;;;;;-144.47;87.94;53217.59;4991123;28;20041;-65
2023/01/19 04:47:38;;;;;;;;;;;;;;;-144.47;88.06;53191.78;4991197;28;20034;-66
2023/01/19 04:50:05;;;;;;;8.02;3.38;;;;;;;-144.47;87.99;53205.66;4990752;28;19917;-65
2023/01/19 04:52:34;;;;;;;12.95;3.55;;;;;;;-144.47;87.85;53199.72;4990546;28;20076;-66
2023/01/19 04:55:04;;;;;;;;;;;;;;;-144.47;88.33;53235.47;4990552;28;20061;-66
2023/01/19 04:57:29;;;;;;;11.70;4.28;;;;;;;-144.47;88.31;53197.72;4989968;28;19921;-65
2023/01/19 04:59:56;;;;;;;10.27;3.92;;;;;;;-144.47;88.62;53207.66;4973052;28;20429;-65
2023/01/19 05:02:22;;;;;;;13.30;3.92;;;;;;;-144.47;88.78;53195.75;4978450;28;20457;-68
2023/01/19 05:04:47;;;;;;;13.32;4.40;;;;;;;-144.47;89.16;53233.47;4989903;28;20044;-66
2023/01/19 05:07:13;;;;;;;14.90;4.55;;;;;;;-144.47;88.98;53207.66;4991467;28;20030;-67
2023/01/19 05:09:38;;;;;;;13.38;4.68;;;;;;;-144.47;89.48;53211.63;4995663;28;20541;-65
2023/01/19 05:12:04;;;;;;;10.70;4.65;;;;;;;-144.47;89.12;53203.69;4987760;28;20052;-63
2023/01/19 05:14:30;;;;;;;8.52;3.63;;;;;;;-144.47;90.02;53229.50;4986858;28;20030;-67
2023/01/19 05:16:55;;;;;;;9.07;4.03;;;;;;;-144.47;90.88;53261.28;4990784;28;20027;-65
2023/01/19 05:19:20;;;;;;;11.68;4.72;;;;;;;-144.47;90.65;53229.50;4990631;28;20077;-65
2023/01/19 05:21:46;;;;;;;10.80;4.55;;;;;;;-144.47;91.26;53221.56;4989703;28;20034;-64
2023/01/19 05:24:12;;;;;;;9.57;3.95;;;;;;;-144.47;91.17;53199.72;4994213;28;20379;-66
2023/01/19 05:26:38;;;;;;;11.43;4.50;;;;;;;-144.47;90.61;53223.56;4972012;28;20415;-67
2023/01/19 05:29:03;;;;;;;12.73;4.35;;;;;;;-144.47;90.46;53225.53;4990045;28;20042;-64
2023/01/19 05:31:29;;;;;;;13.35;5.45;;;;;;;-144.47;90.75;53199.72;4990045;28;20157;-65
2023/01/19 05:33:54;;;;;;;10.93;5.18;;;;;;;-144.47;90.60;53205.66;4989078;28;20049;-65
2023/01/19 05:36:19;;;;;;;12.50;4.03;;;;;;;-144.47;90.46;53203.69;4989576;28;20121;-66
2023/01/19 05:38:45;;;;;;;11.73;5.70;;;;;;;-144.47;90.30;53183.81;4985566;28;20357;-65
2023/01/19 05:41:10;;;;;;;14.27;5.88;;;;;;;-144.47;90.18;53217.59;4988302;28;20053;-66
2023/01/19 05:43:36;;;;;;;12.93;5.40;;;;;;;-144.47;89.71;53227.53;5012862;22;20031;-66
2023/01/19 05:46:03;;;;;;;11.43;5.07;;;;;;;-144.47;90.52;53205.66;4990614;28;20038;-64
2023/01/19 05:48:29;;;;;;;9.70;5.22;;;;;;;-144.47;90.21;53221.56;4997803;28;20507;-65
2023/01/19 05:50:58;;;;;;;16.17;6.07;;;;;;;-144.47;90.20;53219.56;4998373;28;20028;-63
2023/01/19 05:53:24;;;;;;;14.90;6.75;;;;;;;-144.47;90.08;53211.63;4991918;28;20031;-64
2023/01/19 05:55:49;;;;;;;18.77;6.60;;;;;;;-144.47;90.01;53199.72;4991635;28;20030;-68
2023/01/19 05:58:14;;;;;;;11.48;6.13;;;;;;;-144.47;90.33;53213.63;4992286;28;20385;-61
2023/01/19 06:00:40;;;;;;;14.27;6.22;;;;;;;-144.47;90.27;53211.63;4983025;28;20086;-65
2023/01/19 06:03:05;;;;;;;14.93;6.70;;;;;;;-144.47;89.93;53221.56;4981538;28;20042;-66
2023/01/19 06:05:31;;;;;;;23.25;6.03;;;;;;;-144.47;89.98;53213.63;4982766;28;20034;-65
2023/01/19 06:07:56;;;;;;;12.88;6.10;;;;;;;-144.47;89.83;53205.66;4985683;28;20141;-66
2023/01/19 06:10:22;;;;;;;18.98;7.15;;;;;;;-144.47;89.63;53207.66;4992559;28;20034;-63
2023/01/19 06:12:48;;;;;;;19.70;6.63;;;;;;;-144.47;89.48;53213.63;4995698;28;20517;-66
2023/01/19 06:15:14;;;;;;;16.27;7.18;;;;;;;-144.47;89.27;53205.66;4991145;28;20537;-64
2023/01/19 06:17:39;;;;;;;11.98;6.47;;;;;;;-144.47;92.63;53193.75;4989320;28;20424;-65
2023/01/19 06:20:05;;;;;;;15.70;7.35;;;;;;;-144.47;95.05;53175.88;4989976;28;20041;-65
2023/01/19 06:22:31;;;;;;;16.52;7.05;;;;;;;-144.47;92.95;53163.97;4990364;28;20034;-62
2023/01/19 06:24:56;;;;;;;19.60;8.18;;;;;;;-144.47;92.24;53181.84;4990438;28;20503;-66
2023/01/19 06:27:22;;;;;;;17.10;7.75;;;;;;;-144.47;91.14;53171.91;4988956;28;20042;-65
2023/01/19 06:29:47;;;;;;;25.27;8.65;;;;;;;-144.47;88.54;53185.81;4990742;28;20105;-66
2023/01/19 06:32:12;;;;;;;15.13;7.18;;;;;;;-144.47;86.52;53187.78;4998548;28;20574;-64
2023/01/19 06:34:42;;;;;;;13.65;6.03;;;;;;;-144.47;87.19;53197.72;4987862;28;20398;-66
2023/01/19 06:37:09;;;;;;;14.55;6.60;;;;;;;-144.47;87.67;53177.88;4990390;28;20139;-68
2023/01/19 06:39:36;;;;;;;12.90;6.50;;;;;;;-144.47;88.29;53209.66;4990737;28;20030;-67
2023/01/19 06:42:02;;;;;;;12.75;5.88;;;;;;;-144.47;88.78;53225.53;4990175;28;20093;-64
2023/01/19 06:44:27;;;;;;;12.85;6.05;;;;;;;-144.47;89.06;53209.66;4989297;28;20029;-65
2023/01/19 06:46:53;;;;;;;12.18;6.20;;;;;;;-144.47;89.41;53201.69;4989370;28;20073;-65
2023/01/19 06:49:18;;;;;;;17.75;6.97;;;;;;;-144.47;89.83;53179.84;4981460;28;20030;-65
2023/01/19 06:51:43;;;;;;;12.48;7.00;;;;;;;-144.47;90.38;53179.84;4986816;28;20037;-65
2023/01/19 06:54:09;;;;;;;18.50;8.23;;;;;;;-144.47;89.85;53209.66;4990450;28;20026;-66
2023/01/19 06:56:34;;;;;;;22.20;9.15;;;;;;;-144.47;89.34;53189.78;4990142;28;20404;-65
2023/01/19 06:59:00;;;;;;;23.45;7.85;;;;;;;-144.47;89.23;53189.78;4989893;28;20034;-69
2023/01/19 07:01:25;;;;;;;22.73;8.73;;;;;;;-144.47;89.27;53177.88;4990305;28;20092;-66
2023/01/19 07:03:51;;;;;;;15.40;6.63;;;;;;;-144.47;89.33;53209.66;4990978;28;20026;-62
2023/01/19 07:06:16;;;;;;;19.08;7.80;;;;;;;-144.47;89.43;53209.66;5001006;28;20037;-64
2023/01/19 07:08:41;;;;;;;24.80;8.43;;;;;;;-144.47;89.43;53203.69;4994524;28;20570;-67
2023/01/19 07:11:10;;;;;;;13.40;7.85;;;;;;;-144.47;89.51;53205.66;4989872;28;20492;-66
2023/01/19 07:13:37;;;;;;;13.43;6.47;;;;;;;-144.47;89.91;53233.47;4989961;28;20050;-66
2023/01/19 07:16:07;;;;;;;22.48;7.63;;;;;;;-144.47;90.05;53209.66;4990347;28;20030;-64
2023/01/19 07:18:33;;;;;;;17.35;8.05;;;;;;;-144.47;90.47;53158.00;4990094;28;20030;-65
2023/01/19 07:20:59;;;;;;;17.83;7.43;;;;;;;-144.47;90.25;53215.59;4987150;28;20085;-66
2023/01/19 07:23:24;;;;;;;20.15;7.75;;;;;;;-144.47;90.80;53197.72;4991538;28;20054;-66
2023/01/19 07:25:50;;;;;;;16.80;7.82;;;;;;;-144.47;90.85;53213.63;4986947;28;20070;-67
2023/01/19 07:28:15;;;;;;;22.50;9.13;;;;;;;-144.47;91.10;53197.72;4989484;28;20022;-67
2023/01/19 07:30:42;;;;;;;17.02;8.20;;;;;;;-144.47;91.07;53179.84;4989493;28;20058;-62
2023/01/19 07:33:07;;;;;;;17.70;7.95;;;;;;;-144.47;90.91;53229.50;4989681;28;20037;-67
2023/01/19 07:35:33;;;;;;;24.75;9.82;;;;;;;-144.47;90.92;53197.72;4989666;28;20091;-65
2023/01/19 07:37:58;;;;;;;23.23;9.75;;;;;;;-144.47;90.90;53189.78;4988874;28;20104;-66
2023/01/19 07:40:24;;;;;;;39.72;10.27;;;;;;;-144.47;90.53;53197.72;4990263;28;20026;-67
2023/01/19 07:42:49;;;;;;;14.98;7.05;;;;;;;-144.47;90.49;53193.75;4989399;28;20508;-65
2023/01/19 07:45:19;;;;;;;14.98;7.70;;;;;;;-144.47;90.26;53183.81;4989541;28;20038;-66
2023/01/19 07:47:49;;;;;;;21.13;7.57;;;;;;;-144.47;90.02;53173.88;4989821;28;20072;-62
2023/01/19 07:50:16;;;;;;;16.42;7.25;;;;;;;-144.47;89.73;53207.66;4990407;28;20033;-66
2023/01/19 07:52:41;;;;;;;31.10;7.35;;;;;;;-144.47;89.25;53203.69;4989584;28;20033;-63
2023/01/19 07:55:07;;;;;;;17.42;7.45;;;;;;;-144.47;89.08;53207.66;4990602;28;20019;-65
2023/01/19 07:57:33;;;;;;;16.15;7.45;;;;;;;-144.47;88.72;53185.81;4989101;28;20109;-66
2023/01/19 07:59:58;;;;;;;20.88;8.55;;;;;;;-144.47;88.60;53201.69;4989020;28;20035;-65
2023/01/19 08:02:24;;;;;;;16.85;6.78;;;;;;;-144.47;88.26;53219.56;4989540;28;20030;-65
2023/01/19 08:04:50;;;;;;;14.10;6.57;;;;;;;-144.47;87.90;53181.84;4979117;28;20101;-67
2023/01/19 08:07:16;;;;;;;15.95;7.45;;;;;;;-144.47;87.54;53189.78;4993297;28;20029;-65
2023/01/19 08:09:41;;;;;;;17.25;8.38;;;;;;;-144.47;87.26;53185.81;4993546;28;20034;-63
2023/01/19 08:12:06;;;;;;;17.63;6.85;;;;;;;-144.47;86.75;53199.72;4993502;28;20026;-66
2023/01/19 08:14:33;;;;;;;13.52;7.28;;;;;;;-144.47;86.54;53165.94;4993611;28;20026;-65
2023/01/19 08:17:02;;;;;;;17.02;5.88;;;;;;;-144.47;86.40;53173.88;4994195;28;20022;-66
2023/01/19 08:19:27;;;;;;;22.50;5.78;;;;;;;-144.47;86.13;53179.84;4993651;28;20022;-65
2023/01/19 08:21:53;;;;;;;15.70;7.38;;;;;;;-144.47;85.93;53187.78;5000957;28;20084;-66
2023/01/19 08:24:21;;;;;;;13.50;6.25;;;;;;;-144.47;86.06;53181.84;4988580;28;20018;-64
2023/01/19 08:26:47;;;;;;;13.02;6.45;;;;;;;-144.47;86.00;53148.06;4992906;28;20026;-66
2023/01/19 08:29:13;;;;;;;12.48;6.47;;;;;;;-144.47;85.85;53175.88;4993110;28;20030;-67
2023/01/19 08:31:38;;;;;;;13.27;6.85;;;;;;;-144.47;85.73;53181.84;4993335;28;20085;-65
2023/01/19 08:34:04;;;;;;;16.17;6.68;;;;;;;-144.47;85.65;53158.00;4993183;28;20022;-65
2023/01/19 08:36:30;;;;;;;17.02;6.22;;;;;;;-144.47;85.35;53160.00;4993060;28;20034;-66
2023/01/19 08:38:55;;;;;;;19.23;7.35;;;;;;;-144.47;85.09;53130.19;4993201;28;20033;-65
2023/01/19 08:41:21;;;;;;;16.80;6.80;;;;;;;-144.47;85.00;53144.09;4992492;28;20460;-66
2023/01/19 08:43:46;;;;;;;15.02;7.10;;;;;;;-144.47;84.58;53177.88;4992767;28;20042;-68
2023/01/19 08:46:16;;;;;;;22.58;6.88;;;;;;;-144.47;84.50;53156.00;4992952;28;20045;-65
2023/01/19 08:48:42;;;;;;;;;;;;;;;-144.47;84.38;53179.84;4994113;28;20030;-63
2023/01/19 08:51:08;;;;;;;21.75;7.38;;;;;;;-144.47;84.27;53140.13;4993325;28;19909;-65
2023/01/19 08:53:33;;;;;;;17.05;5.85;;;;;;;-144.47;83.72;53163.97;4991717;28;20022;-63
2023/01/19 08:56:00;;;;;;;17.30;7.57;;;;;;;-144.47;83.68;53171.91;4992877;28;20683;-66
2023/01/19 08:58:26;;;;;;;15.50;7.38;;;;;;;-144.47;83.75;53152.03;4991756;28;20105;-63
2023/01/19 09:00:51;;;;;;;13.75;6.95;;;;;;;-144.47;83.37;53140.13;4992823;28;20630;-63
2023/01/19 09:03:18;;;;;;;16.17;6.88;;;;;;;-144.47;83.18;53158.00;4992517;28;20083;-66
2023/01/19 09:05:43;;;;;;;17.60;7.63;;;;;;;-144.47;82.86;53118.28;4992243;28;20030;-63
2023/01/19 09:08:12;;;;;;;14.50;6.97;;;;;;;-144.47;82.88;53126.22;4991537;28;20030;-64
2023/01/19 09:10:38;;;;;;;13.25;7.18;;;;;;;-144.47;82.77;53144.09;4992269;28;20184;-65
2023/01/19 09:13:07;;;;;;;17.02;6.57;;;;;;;-144.47;82.77;53161.97;4993115;28;20033;-63
2023/01/19 09:15:34;;;;;;;13.13;6.65;;;;;;;-144.47;82.42;53116.28;4991781;28;20056;-64
2023/01/19 09:18:01;;;;;;;15.05;6.45;;;;;;;-144.47;82.02;53112.31;4992422;28;20061;-66
2023/01/19 09:20:29;;;;;;;14.45;7.05;;;;;;;-144.47;82.30;53112.31;4990139;28;20031;-68
2023/01/19 09:22:55;;;;;;;19.55;6.65;;;;;;;-144.47;82.04;53146.09;5005970;28;20120;-62
2023/01/19 09:25:20;;;;;;;12.68;6.20;;;;;;;-144.47;82.24;53112.31;4991761;28;20501;-65
2023/01/19 09:27:46;;;;;;;18.42;7.25;;;;;;;-144.47;81.78;53140.13;4992120;28;20499;-67
2023/01/19 09:30:11;;;;;;;14.60;6.63;;;;;;;-144.47;81.69;53110.31;4991542;28;20520;-66
2023/01/19 09:32:37;;;;;;;15.00;7.00;;;;;;;-144.47;81.72;53138.13;4992453;28;20034;-64
2023/01/19 09:35:02;;;;;;;16.90;6.90;;;;;;;-144.47;81.10;53130.19;4991920;28;20041;-64
2023/01/19 09:37:28;;;;;;;19.65;7.18;;;;;;;-144.47;81.27;53126.22;4992223;28;20026;-66
2023/01/19 09:39:53;;;;;;;22.25;7.95;;;;;;;-144.47;81.51;53144.09;4992163;28;20039;-63
2023/01/19 09:42:25;;;;;;;17.65;7.20;;;;;;;-144.47;81.00;53130.19;4992019;28;20022;-65
2023/01/19 09:44:52;;;;;;;14.98;6.50;;;;;;;-144.47;80.93;53181.84;4991040;28;20112;-67
2023/01/19 09:47:22;;;;;;;17.58;7.47;;;;;;;-144.47;81.26;53130.19;4991976;28;20033;-66
2023/01/19 09:49:57;;;;;;;18.92;7.50;;;;;;;-144.47;81.16;53118.28;4991733;28;20432;-67
2023/01/19 09:52:23;;;;;;;18.88;7.03;;;;;;;-144.47;80.71;53130.19;4991929;28;20527;-64
2023/01/19 09:54:55;;;;;;;15.02;6.93;;;;;;;-144.47;80.58;53152.03;4991908;28;20022;-66
2023/01/19 09:57:23;;;;;;;14.38;7.90;;;;;;;-144.47;80.49;53126.22;4991239;28;20049;-66
2023/01/19 09:59:50;;;;;;;14.52;6.90;;;;;;;-144.47;80.72;53106.34;4990763;28;20030;-65
2023/01/19 10:02:27;;;;;;;16.40;7.38;;;;;;;-144.47;80.91;53108.34;4991890;28;20022;-63
2023/01/19 10:05:03;;;;;;;15.73;7.28;;;;;;;-144.47;80.75;53088.47;4991367;28;20037;-65
2023/01/19 10:07:35;;;;;;;21.25;9.20;;;;;;;-144.47;80.62;53122.25;4990836;28;20913;-63
2023/01/19 10:10:08;;;;;;;14.77;6.47;;;;;;;-144.47;81.11;53144.09;4990821;28;20066;-64
2023/01/19 10:12:46;;;;;;;16.88;7.90;;;;;;;-144.47;80.51;53138.13;4991503;28;20038;-66
2023/01/19 10:15:33;;;;;;;18.30;6.97;;;;;;;-144.47;80.04;53082.53;4991255;28;20452;-64
2023/01/19 10:18:21;;;;;;;17.00;6.70;;;;;;;-144.47;80.44;53118.28;4979402;28;20038;-65
2023/01/19 10:20:50;;;;;;;11.38;6.43;;;;;;;-144.47;80.00;53122.25;4989709;28;21832;-62
2023/01/19 10:23:35;;;;;;;15.00;7.20;;;;;;;-144.47;80.18;53102.38;4991784;28;20388;-65
2023/01/19 10:26:12;;;;;;;13.00;6.88;;;;;;;-144.47;80.28;53102.38;4991112;28;20033;-66
2023/01/19 10:28:39;;;;;;;19.38;7.35;;;;;;;-144.47;80.39;53110.31;4990198;28;20109;-61
2023/01/19 10:31:08;;;;;;;15.13;6.90;;;;;;;-144.47;80.28;53086.50;4989959;28;20033;-65
2023/01/19 10:33:34;;;;;;;13.82;6.18;;;;;;;-144.47;80.31;53074.56;4991002;28;20026;-64
2023/01/19 10:36:06;;;;;;;15.77;6.90;;;;;;;-144.47;80.38;53090.47;4991101;28;20034;-65
2023/01/19 10:38:34;;;;;;;14.90;7.60;;;;;;;-144.47;79.80;53074.56;4990866;28;20022;-67
2023/01/19 10:41:38;;;;;;;14.63;7.55;;;;;;;-144.47;80.12;53108.34;4991186;28;20483;-65
2023/01/19 10:44:04;;;;;;;15.32;6.43;;;;;;;-144.47;79.69;53096.41;4989221;28;20528;-66
2023/01/19 10:46:43;;;;;;;20.83;7.60;;;;;;;-144.47;79.86;53066.63;4983121;28;20124;-66
2023/01/19 10:49:30;;;;;;;16.95;7.43;;;;;;;-144.47;78.87;53082.53;4981707;28;20034;-66
2023/01/19 10:51:57;;;;;;;15.10;7.10;;;;;;;-144.47;78.93;53094.44;4987564;28;20026;-62
2023/01/19 10:54:25;;;;;;;14.52;7.13;;;;;;;-144.47;78.48;53088.47;4992231;28;20022;-63
2023/01/19 10:56:55;;;;;;;15.20;6.75;;;;;;;-144.47;78.74;53090.47;4987891;28;20038;-66
2023/01/19 10:59:49;;;;;;;16.40;6.60;;;;;;;-144.47;78.81;53068.63;4984975;28;20034;-64
2023/01/19 11:02:22;;;;;;;14.68;7.60;;;;;;;-144.47;78.46;53114.31;4982645;28;20126;-66
2023/01/19 11:04:51;;;;;;;16.27;8.15;;;;;;;-144.47;78.69;53106.34;4988812;28;20061;-65
2023/01/19 11:07:18;;;;;;;14.60;6.85;;;;;;;-144.47;78.68;53082.53;4994200;28;20468;-67
2023/01/19 11:09:44;;;;;;;18.83;7.28;;;;;;;-144.47;78.33;53126.22;4981907;28;20061;-66
2023/01/19 11:12:23;;;;;;;10.85;5.93;;;;;;;-144.47;78.22;53082.53;4982703;28;20030;-64
2023/01/19 11:14:50;;;;;;;18.55;7.00;;;;;;;-144.47;77.90;53066.63;4985586;28;20026;-65
2023/01/19 11:17:25;;;;;;;13.15;6.82;;;;;;;-144.47;78.04;53104.38;4989985;28;20488;-65
2023/01/19 11:19:59;;;;;;;14.90;6.10;;;;;;;-144.47;78.27;53076.56;4985688;28;20022;-64
2023/01/19 11:22:31;;;;;;;14.13;6.68;;;;;;;-144.47;78.01;53086.50;4988874;28;20045;-65
2023/01/19 11:24:59;;;;;;;17.55;8.23;;;;;;;-144.47;77.70;53094.44;4982327;28;20022;-64
2023/01/19 11:27:25;;;;;;;14.38;6.63;;;;;;;-144.47;77.68;53108.34;4994939;28;20026;-63